Time;durP1;ratioP1;P1;durP2;ratioP2;P2;SDS_P1;SDS_P2;PMS_P1;PMS_P2;Temp;Humidity;BMP_temperature;BMP_pressure;BME280_temperature;BME280_humidity;BME280_pressure;Samples;Min_cycle;Max_cycle;Signal;HPM_P1;HPM_P2
2023/12/15 00:01:23;;;;;;;21.33;12.02;;;;;;;;;;5146444;27;20505;-58
2023/12/15 00:03:49;;;;;;;24.75;13.60;;;;;;;;;;5146159;27;20104;-58
2023/12/15 00:06:16;;;;;;;25.85;15.25;;;;;;;;;;5147420;27;20062;-56
2023/12/15 00:08:43;;;;;;;23.40;14.52;;;;;;;;;;5147173;27;20054;-57
2023/12/15 00:11:09;;;;;;;22.75;14.20;;;;;;;;;;5146974;27;20100;-56
2023/12/15 00:13:36;;;;;;;31.52;15.45;;;;;;;;;;5147291;27;20170;-57
2023/12/15 00:16:02;;;;;;;29.10;17.15;;;;;;;;;;5147092;27;20047;-58
2023/12/15 00:18:29;;;;;;;27.95;15.85;;;;;;;;;;5145355;27;20128;-58
2023/12/15 00:20:55;;;;;;;30.83;16.63;;;;;;;;;;5147172;27;20055;-57
2023/12/15 00:23:22;;;;;;;34.45;17.52;;;;;;;;;;5147145;27;20565;-58
2023/12/15 00:25:48;;;;;;;33.42;17.20;;;;;;;;;;5146770;27;20051;-57
2023/12/15 00:28:14;;;;;;;33.95;18.77;;;;;;;;;;5146875;27;20054;-58
2023/12/15 00:30:41;;;;;;;29.52;18.63;;;;;;;;;;5146372;27;20546;-57
2023/12/15 00:33:08;;;;;;;37.55;18.70;;;;;;;;;;5145555;27;20063;-57
2023/12/15 00:35:34;;;;;;;37.38;19.65;;;;;;;;;;5146273;27;20146;-58
2023/12/15 00:38:01;;;;;;;46.83;20.75;;;;;;;;;;5145518;27;20134;-57
2023/12/15 00:40:27;;;;;;;34.05;19.63;;;;;;;;;;5144246;27;20746;-57
2023/12/15 00:42:54;;;;;;;43.35;21.00;;;;;;;;;;5145872;27;20646;-56
2023/12/15 00:45:20;;;;;;;45.50;23.15;;;;;;;;;;5146497;27;20497;-58
2023/12/15 00:47:46;;;;;;;42.70;21.55;;;;;;;;;;5145717;27;20100;-58
2023/12/15 00:50:13;;;;;;;43.80;23.80;;;;;;;;;;5146284;27;20100;-58
2023/12/15 00:52:39;;;;;;;45.47;22.60;;;;;;;;;;5146215;27;20055;-57
2023/12/15 00:55:06;;;;;;;46.55;23.48;;;;;;;;;;5144682;27;20097;-58
2023/12/15 00:57:32;;;;;;;45.10;23.83;;;;;;;;;;5146241;27;20058;-57
2023/12/15 00:59:59;;;;;;;49.17;24.10;;;;;;;;;;5146169;27;20058;-57
2023/12/15 01:02:26;;;;;;;50.00;24.77;;;;;;;;;;5145591;27;20516;-56
2023/12/15 01:04:52;;;;;;;55.67;25.30;;;;;;;;;;5146366;27;20065;-58
2023/12/15 01:07:19;;;;;;;49.38;23.23;;;;;;;;;;5145780;27;20104;-56
2023/12/15 01:09:45;;;;;;;49.28;24.65;;;;;;;;;;5145908;27;20051;-56
2023/12/15 01:12:12;;;;;;;51.88;24.33;;;;;;;;;;5146436;27;20142;-57
2023/12/15 01:14:39;;;;;;;55.25;25.50;;;;;;;;;;5144909;27;20096;-55
2023/12/15 01:17:05;;;;;;;55.05;26.98;;;;;;;;;;5145087;27;20062;-56
2023/12/15 01:19:31;;;;;;;51.47;26.15;;;;;;;;;;5145910;27;20504;-57
2023/12/15 01:21:58;;;;;;;53.90;25.88;;;;;;;;;;5145300;27;20561;-57
2023/12/15 01:24:24;;;;;;;58.60;26.35;;;;;;;;;;5145757;27;20061;-57
2023/12/15 01:26:51;;;;;;;49.95;26.83;;;;;;;;;;5145909;27;20043;-56
2023/12/15 01:29:17;;;;;;;49.58;25.17;;;;;;;;;;5145608;27;20489;-56
2023/12/15 01:31:44;;;;;;;56.10;25.00;;;;;;;;;;5145291;27;20051;-57
2023/12/15 01:34:10;;;;;;;55.97;26.15;;;;;;;;;;5145534;27;20864;-56
2023/12/15 01:36:37;;;;;;;54.55;26.63;;;;;;;;;;5144886;27;20071;-57
2023/12/15 01:39:03;;;;;;;61.38;27.45;;;;;;;;;;5145992;27;20063;-56
2023/12/15 01:41:31;;;;;;;50.78;26.33;;;;;;;;;;5145403;27;20058;-54
2023/12/15 01:43:58;;;;;;;56.95;28.23;;;;;;;;;;5145065;27;20047;-57
2023/12/15 01:46:24;;;;;;;61.88;26.88;;;;;;;;;;5145421;27;20368;-56
2023/12/15 01:48:51;;;;;;;57.03;28.08;;;;;;;;;;5145233;27;20127;-57
2023/12/15 01:51:18;;;;;;;60.78;28.92;;;;;;;;;;5145666;27;20507;-57
2023/12/15 01:53:44;;;;;;;55.63;26.88;;;;;;;;;;5145452;27;20127;-57
2023/12/15 01:56:11;;;;;;;63.60;28.40;;;;;;;;;;5144935;27;20590;-56
2023/12/15 01:58:38;;;;;;;64.18;27.52;;;;;;;;;;5143894;27;20146;-57
2023/12/15 02:01:06;;;;;;;60.30;28.13;;;;;;;;;;5145177;27;20496;-58
2023/12/15 02:03:33;;;;;;;66.18;28.60;;;;;;;;;;5145123;27;20051;-58
2023/12/15 02:06:00;;;;;;;67.80;28.98;;;;;;;;;;5144201;27;20054;-57
2023/12/15 02:08:26;;;;;;;64.45;29.58;;;;;;;;;;5144995;27;20082;-58
2023/12/15 02:10:53;;;;;;;68.90;30.20;;;;;;;;;;5144768;27;20062;-58
2023/12/15 02:13:19;;;;;;;56.05;29.38;;;;;;;;;;5144811;27;20082;-58
2023/12/15 02:15:46;;;;;;;64.45;28.42;;;;;;;;;;5144972;27;20110;-58
2023/12/15 02:18:12;;;;;;;55.45;28.35;;;;;;;;;;5145445;27;20055;-58
2023/12/15 02:20:39;;;;;;;68.30;29.50;;;;;;;;;;5144200;27;20558;-57
2023/12/15 02:23:05;;;;;;;64.85;27.25;;;;;;;;;;5145551;27;20066;-58
2023/12/15 02:25:32;;;;;;;58.20;27.45;;;;;;;;;;5144576;27;20140;-56
2023/12/15 02:27:58;;;;;;;60.45;28.02;;;;;;;;;;5143765;27;20083;-58
2023/12/15 02:30:24;;;;;;;55.67;27.88;;;;;;;;;;5144489;27;20561;-56
2023/12/15 02:32:51;;;;;;;59.92;26.83;;;;;;;;;;5144750;27;20062;-57
2023/12/15 02:35:18;;;;;;;68.90;28.77;;;;;;;;;;5144805;27;20079;-58
2023/12/15 02:37:44;;;;;;;57.97;27.88;;;;;;;;;;5144982;27;20048;-59
2023/12/15 02:40:10;;;;;;;59.75;27.77;;;;;;;;;;5144411;27;20049;-57
2023/12/15 02:42:37;;;;;;;64.78;29.88;;;;;;;;;;5143638;27;20050;-57
2023/12/15 02:45:03;;;;;;;62.83;27.63;;;;;;;;;;5144464;27;20054;-57
2023/12/15 02:47:30;;;;;;;56.53;27.33;;;;;;;;;;5144231;27;20199;-58
2023/12/15 02:49:57;;;;;;;63.55;27.83;;;;;;;;;;5144354;27;20051;-57
2023/12/15 02:52:23;;;;;;;54.92;27.40;;;;;;;;;;5144194;27;20508;-57
2023/12/15 02:54:49;;;;;;;61.92;27.30;;;;;;;;;;5144214;27;20580;-57
2023/12/15 02:57:16;;;;;;;56.95;26.85;;;;;;;;;;5143825;27;20051;-59
2023/12/15 02:59:42;;;;;;;52.95;25.50;;;;;;;;;;5144125;27;20573;-57
2023/12/15 03:02:09;;;;;;;54.22;27.63;;;;;;;;;;5144214;27;20051;-58
2023/12/15 03:04:35;;;;;;;57.05;26.38;;;;;;;;;;5144417;27;20513;-57
2023/12/15 03:07:02;;;;;;;61.75;27.90;;;;;;;;;;5144891;27;20473;-55
2023/12/15 03:09:28;;;;;;;58.55;26.65;;;;;;;;;;5143510;27;20058;-57
2023/12/15 03:11:54;;;;;;;53.08;26.00;;;;;;;;;;5123328;27;20075;-57
2023/12/15 03:14:21;;;;;;;57.95;25.33;;;;;;;;;;5123892;27;20055;-56
2023/12/15 03:16:47;;;;;;;52.00;25.15;;;;;;;;;;5124337;27;20052;-58
2023/12/15 03:19:14;;;;;;;51.08;25.83;;;;;;;;;;5141139;27;20047;-57
2023/12/15 03:21:40;;;;;;;49.53;25.38;;;;;;;;;;5147502;27;20482;-58
2023/12/15 03:24:07;;;;;;;50.42;24.27;;;;;;;;;;5147913;27;20051;-57
2023/12/15 03:26:33;;;;;;;53.97;25.00;;;;;;;;;;5147142;27;20051;-57
2023/12/15 03:28:59;;;;;;;47.22;23.50;;;;;;;;;;5148410;27;20540;-58
2023/12/15 03:31:26;;;;;;;55.80;26.02;;;;;;;;;;5147881;27;20089;-57
2023/12/15 03:33:52;;;;;;;54.22;24.35;;;;;;;;;;5147526;27;20051;-57
2023/12/15 03:36:19;;;;;;;53.28;23.35;;;;;;;;;;5147586;27;20437;-57
2023/12/15 03:38:45;;;;;;;51.03;24.42;;;;;;;;;;5147897;27;20051;-58
2023/12/15 03:41:12;;;;;;;55.50;24.17;;;;;;;;;;5147676;27;20466;-57
2023/12/15 03:43:39;;;;;;;48.92;25.50;;;;;;;;;;5147264;27;20058;-56
2023/12/15 03:46:05;;;;;;;54.17;25.17;;;;;;;;;;5147416;27;20533;-57
2023/12/15 03:48:32;;;;;;;49.30;23.77;;;;;;;;;;5147559;27;20466;-57
2023/12/15 03:50:59;;;;;;;46.97;24.63;;;;;;;;;;5146734;27;20551;-57
2023/12/15 03:53:25;;;;;;;52.80;24.23;;;;;;;;;;5147648;27;20055;-57
2023/12/15 03:55:51;;;;;;;54.25;24.92;;;;;;;;;;5147149;27;20046;-57
2023/12/15 03:58:18;;;;;;;49.00;24.40;;;;;;;;;;5147253;27;20082;-58
2023/12/15 04:00:44;;;;;;;46.70;24.67;;;;;;;;;;5147120;27;20169;-57
2023/12/15 04:03:11;;;;;;;50.58;23.20;;;;;;;;;;5146717;27;20447;-57
2023/12/15 04:05:37;;;;;;;57.25;25.23;;;;;;;;;;5146803;27;20053;-58
2023/12/15 04:08:04;;;;;;;51.90;24.92;;;;;;;;;;5147235;27;20428;-58
2023/12/15 04:10:30;;;;;;;60.83;25.30;;;;;;;;;;5146674;27;20061;-58
2023/12/15 04:12:56;;;;;;;57.97;25.80;;;;;;;;;;5146594;27;20047;-57
2023/12/15 04:15:23;;;;;;;51.17;24.52;;;;;;;;;;5144577;27;20051;-57
2023/12/15 04:17:49;;;;;;;45.60;24.35;;;;;;;;;;5147101;27;20646;-57
2023/12/15 04:20:16;;;;;;;47.83;23.10;;;;;;;;;;5147183;27;20058;-56
2023/12/15 04:22:43;;;;;;;47.35;24.42;;;;;;;;;;5146177;27;20179;-57
2023/12/15 04:25:09;;;;;;;46.42;24.58;;;;;;;;;;5146262;27;20508;-56
2023/12/15 04:27:36;;;;;;;56.20;26.05;;;;;;;;;;5146193;27;20134;-54
2023/12/15 04:30:06;;;;;;;54.95;24.85;;;;;;;;;;5146109;27;20051;-58
2023/12/15 04:32:32;;;;;;;51.63;25.20;;;;;;;;;;5146793;27;20528;-57
2023/12/15 04:34:59;;;;;;;51.42;22.83;;;;;;;;;;5146596;27;20062;-56
2023/12/15 04:37:25;;;;;;;55.97;25.33;;;;;;;;;;5146618;27;20581;-58
2023/12/15 04:39:51;;;;;;;51.47;25.55;;;;;;;;;;5146925;27;20062;-58
2023/12/15 04:42:18;;;;;;;50.17;25.50;;;;;;;;;;5146557;27;20485;-57
2023/12/15 04:44:44;;;;;;;51.17;24.75;;;;;;;;;;5146083;27;20579;-55
2023/12/15 04:47:11;;;;;;;54.42;25.15;;;;;;;;;;5146224;27;20051;-56
2023/12/15 04:49:38;;;;;;;49.55;23.80;;;;;;;;;;5146341;27;20051;-57
2023/12/15 04:52:04;;;;;;;51.45;23.25;;;;;;;;;;5146167;27;20138;-57
2023/12/15 04:54:31;;;;;;;50.92;23.10;;;;;;;;;;5145910;27;20437;-55
2023/12/15 04:56:57;;;;;;;55.10;24.08;;;;;;;;;;5146338;27;20588;-53
2023/12/15 04:59:24;;;;;;;52.45;24.67;;;;;;;;;;5146231;27;20055;-57
2023/12/15 05:01:51;;;;;;;53.00;23.95;;;;;;;;;;5145943;27;20130;-56
2023/12/15 05:04:17;;;;;;;48.00;22.25;;;;;;;;;;5146165;27;20051;-57
2023/12/15 05:06:44;;;;;;;45.85;23.15;;;;;;;;;;5145483;27;20438;-58
2023/12/15 05:09:10;;;;;;;40.13;22.17;;;;;;;;;;5145016;27;20450;-57
2023/12/15 05:11:37;;;;;;;45.88;22.52;;;;;;;;;;5144126;27;20047;-57
2023/12/15 05:14:03;;;;;;;45.38;22.55;;;;;;;;;;5145941;27;20055;-59
2023/12/15 05:16:30;;;;;;;44.72;21.00;;;;;;;;;;5145484;27;20146;-57
2023/12/15 05:18:56;;;;;;;46.05;20.83;;;;;;;;;;5145916;27;20059;-57
2023/12/15 05:21:23;;;;;;;37.40;19.40;;;;;;;;;;5144803;27;20051;-57
2023/12/15 05:23:49;;;;;;;42.03;20.60;;;;;;;;;;5145936;27;20540;-58
2023/12/15 05:26:16;;;;;;;44.05;20.85;;;;;;;;;;5136710;27;20061;-57
2023/12/15 05:28:44;;;;;;;44.78;20.02;;;;;;;;;;5125185;27;20051;-55
2023/12/15 05:31:11;;;;;;;38.03;18.42;;;;;;;;;;5133793;27;20413;-58
2023/12/15 05:33:37;;;;;;;35.95;18.77;;;;;;;;;;5145100;27;20090;-56
2023/12/15 05:36:04;;;;;;;42.08;19.10;;;;;;;;;;5125383;27;20060;-57
2023/12/15 05:38:30;;;;;;;40.38;18.20;;;;;;;;;;5125279;27;20060;-56
2023/12/15 05:40:57;;;;;;;37.13;19.02;;;;;;;;;;5129479;27;20071;-56
2023/12/15 05:43:24;;;;;;;47.53;18.85;;;;;;;;;;5145565;27;20047;-56
2023/12/15 05:45:50;;;;;;;33.08;18.25;;;;;;;;;;5145296;27;20600;-56
2023/12/15 05:48:17;;;;;;;35.38;17.63;;;;;;;;;;5135701;27;20076;-57
2023/12/15 05:50:43;;;;;;;38.95;19.50;;;;;;;;;;5124398;27;20047;-57
2023/12/15 05:53:10;;;;;;;42.33;17.42;;;;;;;;;;5124852;27;20494;-55
2023/12/15 05:55:36;;;;;;;35.35;17.42;;;;;;;;;;5124390;27;20056;-57
2023/12/15 05:58:03;;;;;;;34.33;16.17;;;;;;;;;;5124677;27;20093;-56
2023/12/15 06:00:29;;;;;;;42.00;18.13;;;;;;;;;;5132816;27;20512;-56
2023/12/15 06:02:56;;;;;;;31.95;16.50;;;;;;;;;;5144897;27;20059;-58
2023/12/15 06:05:23;;;;;;;37.75;16.42;;;;;;;;;;5144031;27;20619;-55
2023/12/15 06:07:49;;;;;;;28.63;15.45;;;;;;;;;;5129482;27;20497;-57
2023/12/15 06:10:15;;;;;;;35.25;16.02;;;;;;;;;;5138832;27;20138;-57
2023/12/15 06:12:42;;;;;;;33.72;15.40;;;;;;;;;;5145007;27;20055;-56
2023/12/15 06:15:08;;;;;;;31.90;15.10;;;;;;;;;;5132193;27;20055;-56
2023/12/15 06:17:35;;;;;;;29.75;15.13;;;;;;;;;;5139305;27;20565;-55
2023/12/15 06:20:02;;;;;;;35.85;14.60;;;;;;;;;;5141357;27;20086;-57
2023/12/15 06:22:29;;;;;;;32.63;15.43;;;;;;;;;;5133195;27;20436;-56
2023/12/15 06:24:55;;;;;;;36.20;15.73;;;;;;;;;;5122578;27;20059;-57
2023/12/15 06:27:22;;;;;;;28.52;14.18;;;;;;;;;;5126888;27;20505;-56
2023/12/15 06:29:48;;;;;;;26.65;14.48;;;;;;;;;;5144977;27;20138;-56
2023/12/15 06:32:15;;;;;;;33.00;14.38;;;;;;;;;;5144807;27;20493;-57
2023/12/15 06:34:42;;;;;;;28.25;12.88;;;;;;;;;;5144204;27;20055;-56
2023/12/15 06:37:09;;;;;;;37.15;14.25;;;;;;;;;;5144832;27;20136;-57
2023/12/15 06:39:35;;;;;;;34.22;13.90;;;;;;;;;;5144011;27;20513;-57
2023/12/15 06:42:02;;;;;;;33.65;14.05;;;;;;;;;;5144334;27;20047;-58
2023/12/15 06:44:30;;;;;;;26.63;13.65;;;;;;;;;;5130316;27;20547;-57
2023/12/15 06:46:56;;;;;;;34.55;15.07;;;;;;;;;;5123604;27;20083;-56
2023/12/15 06:49:30;;;;;;;37.35;13.45;;;;;;;;;;5132027;27;20051;-55
2023/12/15 06:51:58;;;;;;;26.58;12.48;;;;;;;;;;5140751;27;20051;-57
2023/12/15 06:54:24;;;;;;;30.98;13.30;;;;;;;;;;5143137;27;20051;-57
2023/12/15 06:56:50;;;;;;;30.95;12.38;;;;;;;;;;5146516;27;20423;-56
2023/12/15 06:59:17;;;;;;;42.22;13.73;;;;;;;;;;5164106;27;20054;-58
2023/12/15 07:01:43;;;;;;;26.80;12.82;;;;;;;;;;5153689;27;20055;-58
2023/12/15 07:04:09;;;;;;;24.00;12.45;;;;;;;;;;5143502;27;20078;-58
2023/12/15 07:06:37;;;;;;;28.77;12.52;;;;;;;;;;5143412;27;20063;-57
2023/12/15 07:09:03;;;;;;;32.30;14.13;;;;;;;;;;5143576;27;20055;-56
2023/12/15 07:11:30;;;;;;;32.05;12.30;;;;;;;;;;5146410;27;20129;-57
2023/12/15 07:13:56;;;;;;;26.33;12.23;;;;;;;;;;5164045;27;20061;-56
2023/12/15 07:16:23;;;;;;;26.92;12.65;;;;;;;;;;5151230;27;20047;-57
2023/12/15 07:18:50;;;;;;;35.92;13.45;;;;;;;;;;5143116;27;20576;-57
2023/12/15 07:21:17;;;;;;;33.15;12.27;;;;;;;;;;5143516;27;20112;-57
2023/12/15 07:23:43;;;;;;;31.63;12.07;;;;;;;;;;5143348;27;20051;-57
2023/12/15 07:26:10;;;;;;;29.63;11.38;;;;;;;;;;5143556;27;20132;-56
2023/12/15 07:28:36;;;;;;;21.73;10.98;;;;;;;;;;5142530;27;20105;-58
2023/12/15 07:31:03;;;;;;;23.13;12.65;;;;;;;;;;5143257;27;20518;-56
2023/12/15 07:33:29;;;;;;;32.30;12.63;;;;;;;;;;5141727;27;20058;-58
2023/12/15 07:35:55;;;;;;;27.65;11.23;;;;;;;;;;5142863;27;20136;-57
2023/12/15 07:38:22;;;;;;;33.78;12.90;;;;;;;;;;5162253;27;20125;-57
2023/12/15 07:40:54;;;;;;;30.42;12.05;;;;;;;;;;5157879;27;20051;-58
2023/12/15 07:43:21;;;;;;;32.90;12.95;;;;;;;;;;5142941;27;20517;-58
2023/12/15 07:45:47;;;;;;;29.10;10.98;;;;;;;;;;5143096;27;20050;-56
2023/12/15 07:48:13;;;;;;;32.00;11.45;;;;;;;;;;5143111;27;20057;-57
2023/12/15 07:50:40;;;;;;;30.92;10.77;;;;;;;;;;5142887;27;20514;-55
2023/12/15 07:53:06;;;;;;;27.40;11.18;;;;;;;;;;5138376;27;20051;-58
2023/12/15 07:55:33;;;;;;;27.00;10.18;;;;;;;;;;5139584;27;20521;-56
2023/12/15 07:57:59;;;;;;;27.13;10.45;;;;;;;;;;5142622;27;20066;-54
2023/12/15 08:00:25;;;;;;;27.15;10.73;;;;;;;;;;5142956;27;20043;-57
2023/12/15 08:02:52;;;;;;;30.00;11.77;;;;;;;;;;5142881;27;20051;-56
2023/12/15 08:05:22;;;;;;;26.33;10.23;;;;;;;;;;5145167;27;20235;-55
2023/12/15 08:07:48;;;;;;;23.48;10.55;;;;;;;;;;5146898;27;20091;-58
2023/12/15 08:10:15;;;;;;;25.48;10.35;;;;;;;;;;5146317;27;20523;-56
2023/12/15 08:12:42;;;;;;;26.02;10.30;;;;;;;;;;5137614;27;20108;-56
2023/12/15 08:15:08;;;;;;;32.63;10.48;;;;;;;;;;5146447;27;20502;-57
2023/12/15 08:17:34;;;;;;;20.80;9.27;;;;;;;;;;5145099;27;20177;-57
2023/12/15 08:20:02;;;;;;;28.00;11.27;;;;;;;;;;5146549;27;20047;-56
2023/12/15 08:22:29;;;;;;;30.08;9.88;;;;;;;;;;5145704;27;20039;-57
2023/12/15 08:24:55;;;;;;;31.08;10.45;;;;;;;;;;5146846;27;20108;-58
2023/12/15 08:27:22;;;;;;;27.60;9.18;;;;;;;;;;5146338;27;20461;-58
2023/12/15 08:29:48;;;;;;;23.48;9.80;;;;;;;;;;5145305;27;20055;-58
2023/12/15 08:32:15;;;;;;;19.77;8.25;;;;;;;;;;5145929;27;20047;-55
2023/12/15 08:34:42;;;;;;;23.85;10.10;;;;;;;;;;5145168;27;20058;-58
2023/12/15 08:37:08;;;;;;;24.85;10.07;;;;;;;;;;5146542;27;20135;-56
2023/12/15 08:39:35;;;;;;;27.15;10.77;;;;;;;;;;5134640;27;20463;-57
2023/12/15 08:42:02;;;;;;;24.02;8.93;;;;;;;;;;5143105;27;20058;-56
2023/12/15 08:44:28;;;;;;;28.75;9.13;;;;;;;;;;5142307;27;20082;-56
2023/12/15 08:47:00;;;;;;;28.45;9.68;;;;;;;;;;5137825;27;20051;-58
2023/12/15 08:49:27;;;;;;;26.10;10.07;;;;;;;;;;5136979;27;20054;-57
2023/12/15 08:51:54;;;;;;;28.92;9.48;;;;;;;;;;5136470;27;20143;-59
2023/12/15 08:54:20;;;;;;;25.50;9.02;;;;;;;;;;5143703;27;20138;-56
2023/12/15 08:56:46;;;;;;;23.08;9.85;;;;;;;;;;5134945;27;20051;-58
2023/12/15 08:59:13;;;;;;;28.10;10.55;;;;;;;;;;5145254;27;20134;-57
2023/12/15 09:01:39;;;;;;;23.88;8.50;;;;;;;;;;5144933;27;20051;-57
2023/12/15 09:04:06;;;;;;;16.17;8.55;;;;;;;;;;5145347;27;20051;-56
2023/12/15 09:06:32;;;;;;;32.15;9.88;;;;;;;;;;5141643;27;20047;-57
2023/12/15 09:09:08;;;;;;;18.95;8.50;;;;;;;;;;5145546;27;20054;-56
2023/12/15 09:11:34;;;;;;;24.60;7.75;;;;;;;;;;5140714;27;20128;-58
2023/12/15 09:14:01;;;;;;;25.85;8.13;;;;;;;;;;5123940;27;20063;-57
2023/12/15 09:16:28;;;;;;;24.00;8.48;;;;;;;;;;5125714;27;20058;-57
2023/12/15 09:18:54;;;;;;;27.15;8.23;;;;;;;;;;5149338;27;20051;-58
2023/12/15 09:21:20;;;;;;;25.33;8.05;;;;;;;;;;5160708;27;20051;-57
2023/12/15 09:23:47;;;;;;;26.50;7.40;;;;;;;;;;5144930;27;20493;-53
2023/12/15 09:26:13;;;;;;;26.65;8.27;;;;;;;;;;5141525;27;20136;-58
2023/12/15 09:28:40;;;;;;;27.90;7.57;;;;;;;;;;5139249;27;20501;-56
2023/12/15 09:31:07;;;;;;;24.35;8.15;;;;;;;;;;5125586;27;20055;-58
2023/12/15 09:33:34;;;;;;;25.85;7.80;;;;;;;;;;5144409;27;20047;-56
2023/12/15 09:36:00;;;;;;;23.08;7.88;;;;;;;;;;5145325;27;20043;-57
2023/12/15 09:38:27;;;;;;;18.08;7.78;;;;;;;;;;5145518;27;20495;-57
2023/12/15 09:40:54;;;;;;;21.83;7.45;;;;;;;;;;5144450;27;20043;-57
2023/12/15 09:43:20;;;;;;;36.10;7.72;;;;;;;;;;5140842;27;20058;-57
2023/12/15 09:45:46;;;;;;;19.20;6.95;;;;;;;;;;5138713;27;20100;-58
2023/12/15 09:48:14;;;;;;;24.52;7.50;;;;;;;;;;5145015;27;20540;-57
2023/12/15 09:50:44;;;;;;;22.60;6.82;;;;;;;;;;5130607;27;20048;-57
2023/12/15 09:53:11;;;;;;;25.85;6.25;;;;;;;;;;5143962;27;20051;-58
2023/12/15 09:55:38;;;;;;;26.10;7.20;;;;;;;;;;5144664;27;20051;-58
2023/12/15 09:58:05;;;;;;;21.73;6.13;;;;;;;;;;5141650;27;20076;-59
2023/12/15 10:00:31;;;;;;;25.52;6.70;;;;;;;;;;5137172;27;20101;-58
2023/12/15 10:02:59;;;;;;;21.45;6.30;;;;;;;;;;5133618;27;20136;-58
2023/12/15 10:05:26;;;;;;;24.42;6.30;;;;;;;;;;5124106;27;20139;-59
2023/12/15 10:07:53;;;;;;;19.50;5.65;;;;;;;;;;5145536;27;20477;-56
2023/12/15 10:10:21;;;;;;;20.20;5.53;;;;;;;;;;5124470;27;20059;-58
2023/12/15 10:12:47;;;;;;;26.15;6.65;;;;;;;;;;5138792;27;20054;-58
2023/12/15 10:15:14;;;;;;;22.30;6.68;;;;;;;;;;5145885;27;20051;-57
2023/12/15 10:17:41;;;;;;;26.77;6.07;;;;;;;;;;5146854;27;20078;-55
2023/12/15 10:20:09;;;;;;;24.92;6.20;;;;;;;;;;5138389;27;20047;-58
2023/12/15 10:22:38;;;;;;;20.30;5.45;;;;;;;;;;5142965;27;20055;-58
2023/12/15 10:25:16;;;;;;;20.80;5.88;;;;;;;;;;5144616;27;20132;-57
2023/12/15 10:27:43;;;;;;;21.17;6.55;;;;;;;;;;5143271;27;20057;-57
2023/12/15 10:30:09;;;;;;;21.27;5.97;;;;;;;;;;5143868;27;20123;-57
2023/12/15 10:32:36;;;;;;;22.67;6.15;;;;;;;;;;5136801;27;20054;-56
2023/12/15 10:35:03;;;;;;;21.73;5.53;;;;;;;;;;5153206;27;20138;-57
2023/12/15 10:37:30;;;;;;;28.42;6.68;;;;;;;;;;5150882;27;20051;-57
2023/12/15 10:39:57;;;;;;;20.63;6.38;;;;;;;;;;5144745;27;20057;-58
2023/12/15 10:42:29;;;;;;;31.08;6.47;;;;;;;;;;5143629;27;20225;-55
2023/12/15 10:44:58;;;;;;;25.05;5.53;;;;;;;;;;5144043;27;20051;-57
2023/12/15 10:47:26;;;;;;;15.88;4.95;;;;;;;;;;5143492;27;20051;-58
2023/12/15 10:49:53;;;;;;;18.27;6.07;;;;;;;;;;5143989;27;20048;-57
2023/12/15 10:52:21;;;;;;;30.25;6.40;;;;;;;;;;5139497;27;20248;-57
2023/12/15 10:54:50;;;;;;;22.80;6.10;;;;;;;;;;5128533;27;20512;-58
2023/12/15 10:57:16;;;;;;;17.10;5.13;;;;;;;;;;5140028;27;20083;-58
2023/12/15 10:59:43;;;;;;;16.17;5.00;;;;;;;;;;5142532;27;20171;-58
2023/12/15 11:02:11;;;;;;;19.58;5.22;;;;;;;;;;5143356;27;20070;-57
2023/12/15 11:04:38;;;;;;;22.38;5.57;;;;;;;;;;5124966;27;20131;-57
2023/12/15 11:07:05;;;;;;;13.20;4.60;;;;;;;;;;5128719;27;20052;-57
2023/12/15 11:09:32;;;;;;;14.40;4.65;;;;;;;;;;5143621;27;20116;-56
2023/12/15 11:12:24;;;;;;;21.73;4.65;;;;;;;;;;5131967;27;20055;-57
2023/12/15 11:14:56;;;;;;;15.73;4.70;;;;;;;;;;5139150;27;20134;-55
2023/12/15 11:17:23;;;;;;;13.13;4.07;;;;;;;;;;5143866;27;20163;-57
2023/12/15 11:19:51;;;;;;;15.80;4.47;;;;;;;;;;5143626;27;20107;-56
2023/12/15 11:22:18;;;;;;;20.08;4.20;;;;;;;;;;5143743;27;20047;-56
2023/12/15 11:24:44;;;;;;;26.20;5.18;;;;;;;;;;5143678;27;20463;-55
2023/12/15 11:27:13;;;;;;;18.15;3.90;;;;;;;;;;5143733;27;20463;-56
2023/12/15 11:29:40;;;;;;;17.98;4.50;;;;;;;;;;5142136;27;20083;-57
2023/12/15 11:32:25;;;;;;;14.90;3.75;;;;;;;;;;5143574;27;20413;-57
2023/12/15 11:34:52;;;;;;;20.83;4.15;;;;;;;;;;5143710;27;20055;-58
2023/12/15 11:37:19;;;;;;;12.10;3.80;;;;;;;;;;5143709;27;20061;-58
2023/12/15 11:39:49;;;;;;;16.08;3.72;;;;;;;;;;5146010;27;20509;-59
2023/12/15 11:42:15;;;;;;;23.50;3.58;;;;;;;;;;5147074;27;20051;-57
2023/12/15 11:44:45;;;;;;;18.48;3.92;;;;;;;;;;5146157;27;20123;-57
2023/12/15 11:47:12;;;;;;;17.92;4.00;;;;;;;;;;5135527;27;20059;-57
2023/12/15 11:49:44;;;;;;;15.35;4.22;;;;;;;;;;5138472;27;20056;-54
2023/12/15 11:52:12;;;;;;;12.63;3.67;;;;;;;;;;5146365;27;20146;-57
2023/12/15 11:54:38;;;;;;;16.35;4.78;;;;;;;;;;5143388;27;20558;-55
2023/12/15 11:57:08;;;;;;;18.25;4.90;;;;;;;;;;5145467;27;20476;-56
2023/12/15 11:59:35;;;;;;;18.48;3.85;;;;;;;;;;5142362;27;20554;-56
2023/12/15 12:02:02;;;;;;;13.48;3.38;;;;;;;;;;5147616;27;20150;-56
2023/12/15 12:04:29;;;;;;;20.27;3.30;;;;;;;;;;5146767;27;20043;-58
2023/12/15 12:06:56;;;;;;;19.42;3.80;;;;;;;;;;5146807;27;20493;-58
2023/12/15 12:09:23;;;;;;;13.80;2.80;;;;;;;;;;5145931;27;20131;-57
2023/12/15 12:11:49;;;;;;;10.80;3.03;;;;;;;;;;5146799;27;20510;-57
2023/12/15 12:14:16;;;;;;;11.10;3.10;;;;;;;;;;5145754;27;20051;-57
2023/12/15 12:16:47;;;;;;;15.38;4.20;;;;;;;;;;5146641;27;20086;-57
2023/12/15 12:19:15;;;;;;;12.52;2.97;;;;;;;;;;5146071;27;20051;-56
2023/12/15 12:21:41;;;;;;;10.02;3.13;;;;;;;;;;5145828;27;20058;-55
2023/12/15 12:24:08;;;;;;;14.60;3.30;;;;;;;;;;5145619;27;20051;-56
2023/12/15 12:26:35;;;;;;;12.07;4.10;;;;;;;;;;5145910;27;20055;-56
2023/12/15 12:29:01;;;;;;;11.80;2.50;;;;;;;;;;5146891;27;20055;-57
2023/12/15 12:31:28;;;;;;;17.33;3.25;;;;;;;;;;5145906;27;20140;-55
2023/12/15 12:33:55;;;;;;;13.88;2.85;;;;;;;;;;5144937;27;20533;-56
2023/12/15 12:36:22;;;;;;;15.32;3.63;;;;;;;;;;5145950;27;20055;-56
2023/12/15 12:38:49;;;;;;;18.88;3.38;;;;;;;;;;5145669;27;20142;-55
2023/12/15 12:41:16;;;;;;;17.27;3.80;;;;;;;;;;5146433;27;20051;-57
2023/12/15 12:43:42;;;;;;;9.88;2.97;;;;;;;;;;5145937;27;20689;-57
2023/12/15 12:46:10;;;;;;;10.63;3.65;;;;;;;;;;5145215;27;20051;-57
2023/12/15 12:48:37;;;;;;;12.85;2.85;;;;;;;;;;5145141;27;20577;-56
2023/12/15 12:51:04;;;;;;;12.07;2.78;;;;;;;;;;5144951;27;20051;-56
2023/12/15 12:53:31;;;;;;;11.57;2.85;;;;;;;;;;5145415;27;20047;-56
2023/12/15 12:55:57;;;;;;;13.95;2.63;;;;;;;;;;5145029;27;20514;-56
2023/12/15 12:58:24;;;;;;;9.93;2.60;;;;;;;;;;5145240;27;20108;-57
2023/12/15 13:00:52;;;;;;;17.60;3.83;;;;;;;;;;5144584;27;20055;-57
2023/12/15 13:03:19;;;;;;;20.08;3.22;;;;;;;;;;5145912;27;20051;-57
2023/12/15 13:05:46;;;;;;;10.82;2.80;;;;;;;;;;5145061;27;20206;-57
2023/12/15 13:08:14;;;;;;;14.13;2.55;;;;;;;;;;5157460;27;20055;-57
2023/12/15 13:10:40;;;;;;;21.30;4.38;;;;;;;;;;5145793;27;20132;-57
2023/12/15 13:13:08;;;;;;;11.93;3.15;;;;;;;;;;5157422;27;20083;-57
2023/12/15 13:15:34;;;;;;;14.13;2.80;;;;;;;;;;5144560;27;20517;-57
2023/12/15 13:18:02;;;;;;;13.82;2.40;;;;;;;;;;5144582;27;20051;-58
2023/12/15 13:20:28;;;;;;;10.13;2.20;;;;;;;;;;5144457;27;20487;-57
2023/12/15 13:22:55;;;;;;;16.05;3.70;;;;;;;;;;5145248;27;20083;-56
2023/12/15 13:25:21;;;;;;;11.57;3.30;;;;;;;;;;5145445;27;20126;-56
2023/12/15 13:27:48;;;;;;;11.27;3.05;;;;;;;;;;5145242;27;20050;-56
2023/12/15 13:30:15;;;;;;;12.55;2.53;;;;;;;;;;5145140;27;20485;-58
2023/12/15 13:32:41;;;;;;;12.13;2.75;;;;;;;;;;5145398;27;20200;-56
2023/12/15 13:35:08;;;;;;;21.83;3.83;;;;;;;;;;5144339;27;20123;-56
2023/12/15 13:37:35;;;;;;;11.93;2.20;;;;;;;;;;5144896;27;20124;-58
2023/12/15 13:40:03;;;;;;;9.48;2.85;;;;;;;;;;5145300;27;20131;-56
2023/12/15 13:42:30;;;;;;;12.07;2.83;;;;;;;;;;5144858;27;20051;-55
2023/12/15 13:44:56;;;;;;;12.02;2.67;;;;;;;;;;5157533;27;20122;-55
2023/12/15 13:47:24;;;;;;;11.70;2.22;;;;;;;;;;5156200;27;20143;-57
2023/12/15 13:49:51;;;;;;;13.02;2.65;;;;;;;;;;5143965;27;20054;-58
2023/12/15 13:52:17;;;;;;;8.25;2.20;;;;;;;;;;5144481;27;20100;-57
2023/12/15 13:54:44;;;;;;;13.43;3.28;;;;;;;;;;5144545;27;20054;-56
2023/12/15 13:57:11;;;;;;;10.02;2.75;;;;;;;;;;5145738;27;20555;-56
2023/12/15 13:59:37;;;;;;;11.77;2.75;;;;;;;;;;5144486;27;20051;-56
2023/12/15 14:02:04;;;;;;;13.25;2.92;;;;;;;;;;5143246;27;20071;-58
2023/12/15 14:04:30;;;;;;;9.73;2.45;;;;;;;;;;5143418;27;20159;-55
2023/12/15 14:06:59;;;;;;;13.65;2.53;;;;;;;;;;5144143;27;20048;-52
2023/12/15 14:09:27;;;;;;;9.05;2.00;;;;;;;;;;5144277;27;20047;-56
2023/12/15 14:11:55;;;;;;;10.55;2.92;;;;;;;;;;5143889;27;20078;-55
2023/12/15 14:14:21;;;;;;;8.88;2.20;;;;;;;;;;5144500;27;20521;-56
2023/12/15 14:16:48;;;;;;;12.95;4.22;;;;;;;;;;5144670;27;20137;-55
2023/12/15 14:19:15;;;;;;;11.13;2.13;;;;;;;;;;5143958;27;20201;-57
2023/12/15 14:21:45;;;;;;;8.77;2.72;;;;;;;;;;5144765;27;20119;-56